Time;durP1;ratioP1;P1;durP2;ratioP2;P2;SDS_P1;SDS_P2;PMS_P1;PMS_P2;Temp;Humidity;BMP_temperature;BMP_pressure;BME280_temperature;BME280_humidity;BME280_pressure;Samples;Min_cycle;Max_cycle;Signal;HPM_P1;HPM_P2
2023/09/09 00:02:03;;;;;;;10.05;8.90;;;22.20;99.90;;;;;;5049054;28;20045;-34
2023/09/09 00:04:29;;;;;;;10.77;8.85;;;22.20;99.90;;;;;;5038002;28;20028;-34
2023/09/09 00:06:56;;;;;;;11.48;8.55;;;22.10;99.90;;;;;;5045520;28;20078;-34
2023/09/09 00:09:21;;;;;;;10.30;8.68;;;22.10;99.90;;;;;;5038792;28;20547;-35
2023/09/09 00:11:47;;;;;;;10.30;8.40;;;22.00;99.90;;;;;;5045114;28;20041;-34
2023/09/09 00:14:13;;;;;;;10.85;8.00;;;22.00;99.90;;;;;;5043843;28;20128;-39
2023/09/09 00:16:38;;;;;;;10.77;8.82;;;22.00;99.90;;;;;;5046684;28;20569;-34
2023/09/09 00:19:05;;;;;;;10.32;8.38;;;21.90;99.90;;;;;;5044305;28;20144;-34
2023/09/09 00:21:31;;;;;;;13.60;9.25;;;21.90;99.90;;;;;;5043367;28;20037;-34
2023/09/09 00:23:56;;;;;;;11.90;9.32;;;21.90;99.90;;;;;;5044217;28;20062;-33
2023/09/09 00:26:22;;;;;;;11.68;10.15;;;21.90;99.90;;;;;;5039005;28;20179;-34
2023/09/09 00:28:48;;;;;;;12.95;9.48;;;21.90;99.90;;;;;;5044119;28;20029;-34
2023/09/09 00:31:14;;;;;;;13.40;9.73;;;21.90;99.90;;;;;;5046789;28;20040;-34
2023/09/09 00:33:39;;;;;;;12.73;10.35;;;21.80;99.90;;;;;;5034479;28;20040;-34
2023/09/09 00:36:05;;;;;;;13.13;11.10;;;21.80;99.90;;;;;;5048942;28;20442;-34
2023/09/09 00:38:31;;;;;;;13.25;10.05;;;21.80;99.90;;;;;;5042628;28;20041;-34
2023/09/09 00:41:17;;;;;;;12.25;10.95;;;21.70;99.90;;;;;;5038164;28;20037;-34
2023/09/09 00:43:46;;;;;;;13.23;10.73;;;21.70;99.90;;;;;;5042587;28;20040;-34
2023/09/09 00:46:13;;;;;;;12.15;10.93;;;21.70;99.90;;;;;;5037614;28;20080;-34
2023/09/09 00:48:39;;;;;;;12.00;10.48;;;21.70;99.90;;;;;;5042296;28;20040;-34
2023/09/09 00:51:05;;;;;;;14.02;12.00;;;21.60;99.90;;;;;;5039648;28;20028;-36
2023/09/09 00:53:34;;;;;;;11.48;10.25;;;21.60;99.90;;;;;;5042079;28;20059;-34
2023/09/09 00:56:01;;;;;;;12.18;10.95;;;21.60;99.90;;;;;;5038439;28;20049;-35
2023/09/09 00:58:30;;;;;;;13.27;11.88;;;21.60;99.90;;;;;;5023039;28;20048;-34
2023/09/09 01:00:55;;;;;;;11.48;10.23;;;21.60;99.90;;;;;;5042894;28;20086;-34
2023/09/09 01:03:22;;;;;;;14.15;10.90;;;21.60;99.90;;;;;;5043576;28;20037;-33
2023/09/09 01:05:47;;;;;;;13.77;11.00;;;21.50;99.90;;;;;;5025196;28;20040;-33
2023/09/09 01:08:25;;;;;;;13.48;11.52;;;21.50;99.90;;;;;;5046201;28;20040;-33
2023/09/09 01:10:51;;;;;;;12.20;10.98;;;21.50;99.90;;;;;;5039067;28;20041;-33
2023/09/09 01:13:16;;;;;;;11.50;10.30;;;21.50;99.90;;;;;;5037822;28;20037;-33
2023/09/09 01:15:42;;;;;;;12.98;10.65;;;21.40;99.90;;;;;;5035873;28;20095;-33
2023/09/09 01:18:08;;;;;;;13.10;10.77;;;21.40;99.90;;;;;;5047491;28;20139;-33
2023/09/09 01:20:37;;;;;;;14.77;10.95;;;21.40;99.90;;;;;;5049970;28;20051;-33
2023/09/09 01:23:03;;;;;;;12.68;10.35;;;21.30;99.90;;;;;;5029902;28;20122;-33
2023/09/09 01:25:29;;;;;;;13.82;10.82;;;21.30;99.90;;;;;;5049802;28;20502;-33
2023/09/09 01:27:55;;;;;;;11.95;10.50;;;21.30;99.90;;;;;;5047189;28;20028;-34
2023/09/09 01:30:20;;;;;;;11.88;10.52;;;21.20;99.90;;;;;;5047319;28;20078;-34
2023/09/09 01:32:46;;;;;;;12.75;10.27;;;21.30;99.90;;;;;;5044900;28;20414;-33
2023/09/09 01:35:13;;;;;;;13.68;11.10;;;21.20;99.90;;;;;;5049085;28;20443;-34
2023/09/09 01:37:39;;;;;;;12.60;11.30;;;21.20;99.90;;;;;;5051305;28;20155;-33
2023/09/09 01:40:10;;;;;;;12.32;11.02;;;21.20;99.90;;;;;;5049743;28;20120;-33
2023/09/09 01:42:37;;;;;;;16.02;11.07;;;21.20;99.90;;;;;;5048264;28;20040;-33
2023/09/09 01:45:03;;;;;;;12.45;11.15;;;21.10;99.90;;;;;;5047885;28;20068;-34
2023/09/09 01:47:29;;;;;;;14.27;12.45;;;21.10;99.90;;;;;;5043726;28;20402;-33
2023/09/09 01:49:54;;;;;;;14.50;11.23;;;21.10;99.90;;;;;;5042674;28;20029;-33
2023/09/09 01:52:20;;;;;;;14.70;11.52;;;21.10;99.90;;;;;;5039916;28;20045;-33
2023/09/09 01:54:46;;;;;;;14.88;11.95;;;21.00;99.90;;;;;;5042063;28;20041;-33
2023/09/09 01:57:13;;;;;;;15.15;11.52;;;21.00;99.90;;;;;;5043586;28;20040;-33
2023/09/09 01:59:39;;;;;;;14.63;11.55;;;21.00;99.90;;;;;;5028259;28;20051;-33
2023/09/09 02:02:06;;;;;;;14.30;11.40;;;21.00;99.90;;;;;;5044534;28;20036;-33
2023/09/09 02:04:31;;;;;;;15.05;11.45;;;21.00;99.90;;;;;;5043842;28;20082;-34
2023/09/09 02:06:57;;;;;;;14.35;11.65;;;21.00;99.90;;;;;;5043497;28;21428;-33
2023/09/09 02:09:23;;;;;;;13.10;11.70;;;21.00;99.90;;;;;;5041956;28;20880;-33
2023/09/09 02:11:48;;;;;;;14.65;12.77;;;20.90;99.90;;;;;;5043899;28;20028;-34
2023/09/09 02:14:14;;;;;;;15.68;12.77;;;20.90;99.90;;;;;;5043710;28;20794;-33
2023/09/09 02:16:40;;;;;;;13.43;12.02;;;20.90;99.90;;;;;;5047081;28;20478;-34
2023/09/09 02:19:05;;;;;;;13.70;12.30;;;20.90;99.90;;;;;;5043082;28;20098;-34
2023/09/09 02:21:31;;;;;;;13.45;11.68;;;20.80;99.90;;;;;;5043990;28;20033;-33
2023/09/09 02:23:57;;;;;;;14.85;12.93;;;20.80;99.90;;;;;;5048848;28;20090;-33
2023/09/09 02:26:23;;;;;;;16.05;12.93;;;20.80;99.90;;;;;;5050766;28;20036;-33
2023/09/09 02:28:49;;;;;;;16.98;14.18;;;20.70;99.90;;;;;;5044394;28;20042;-33
2023/09/09 02:31:15;;;;;;;14.57;12.27;;;20.70;99.90;;;;;;5045987;28;20044;-33
2023/09/09 02:33:41;;;;;;;15.55;12.98;;;20.60;99.90;;;;;;5047537;28;20402;-34
2023/09/09 02:36:07;;;;;;;14.98;12.63;;;20.50;99.90;;;;;;5025772;28;20045;-43
2023/09/09 02:38:33;;;;;;;14.18;12.48;;;20.50;99.90;;;;;;5048212;28;20041;-34
2023/09/09 02:40:59;;;;;;;16.25;12.23;;;20.50;99.90;;;;;;5024926;28;20178;-34
2023/09/09 02:43:25;;;;;;;16.58;11.70;;;20.50;99.90;;;;;;5050355;28;20045;-34
2023/09/09 02:45:51;;;;;;;12.60;11.30;;;20.50;99.90;;;;;;5045539;28;20037;-33
2023/09/09 02:48:16;;;;;;;13.35;11.70;;;20.50;99.90;;;;;;5042928;28;20394;-34
2023/09/09 02:50:42;;;;;;;15.75;12.80;;;20.50;99.90;;;;;;5042431;28;20568;-34
2023/09/09 02:53:07;;;;;;;15.07;11.35;;;20.50;99.90;;;;;;5043711;28;20036;-33
2023/09/09 02:55:33;;;;;;;13.13;11.60;;;20.40;99.90;;;;;;5042922;28;20111;-33
2023/09/09 02:57:59;;;;;;;16.40;12.88;;;20.40;99.90;;;;;;5042298;28;20095;-33
2023/09/09 03:00:24;;;;;;;15.48;12.68;;;20.40;99.90;;;;;;5045803;28;20099;-34
2023/09/09 03:02:50;;;;;;;17.98;12.50;;;20.30;99.90;;;;;;5041782;28;20062;-34
2023/09/09 03:05:16;;;;;;;15.13;12.18;;;20.30;99.90;;;;;;5042618;28;20129;-33
2023/09/09 03:07:43;;;;;;;16.77;12.32;;;20.30;99.90;;;;;;5040609;28;20099;-35
2023/09/09 03:10:09;;;;;;;14.80;12.35;;;20.30;99.90;;;;;;5042099;28;20483;-34
2023/09/09 03:12:35;;;;;;;15.07;13.48;;;20.30;99.90;;;;;;5041089;28;20039;-34
2023/09/09 03:15:05;;;;;;;15.68;13.10;;;20.30;99.90;;;;;;5042924;28;20048;-33
2023/09/09 03:17:31;;;;;;;15.45;12.88;;;20.30;99.90;;;;;;5042082;28;20699;-33
2023/09/09 03:19:56;;;;;;;16.20;12.98;;;20.20;99.90;;;;;;5042075;28;20096;-33
2023/09/09 03:22:22;;;;;;;18.45;12.77;;;20.20;99.90;;;;;;5045660;28;20033;-34
2023/09/09 03:24:48;;;;;;;13.98;11.95;;;20.20;99.90;;;;;;5041707;28;20438;-34
2023/09/09 03:27:13;;;;;;;14.85;11.90;;;20.10;99.90;;;;;;5047445;28;20557;-34
2023/09/09 03:29:39;;;;;;;14.95;12.07;;;20.10;99.90;;;;;;5043402;28;20106;-34
2023/09/09 03:32:05;;;;;;;14.68;12.60;;;20.10;99.90;;;;;;5042196;28;20036;-33
2023/09/09 03:34:31;;;;;;;14.27;12.38;;;20.10;99.90;;;;;;5040868;28;20043;-33
2023/09/09 03:36:56;;;;;;;16.45;11.90;;;20.10;99.90;;;;;;5038706;28;20029;-33
2023/09/09 03:39:23;;;;;;;14.65;12.70;;;20.10;99.90;;;;;;5041702;28;20033;-34
2023/09/09 03:41:48;;;;;;;13.02;11.73;;;20.00;99.90;;;;;;5048024;28;20040;-33
2023/09/09 03:44:14;;;;;;;13.32;11.18;;;20.00;99.90;;;;;;5042600;28;20068;-34
2023/09/09 03:46:40;;;;;;;13.50;11.45;;;20.00;99.90;;;;;;5047079;28;20055;-33
2023/09/09 03:49:05;;;;;;;13.75;11.18;;;20.00;99.90;;;;;;5040758;28;20045;-34
2023/09/09 03:51:31;;;;;;;14.30;11.48;;;20.00;99.90;;;;;;5046953;28;20037;-34
2023/09/09 03:53:57;;;;;;;13.68;11.27;;;20.00;99.90;;;;;;5041429;28;20048;-33
2023/09/09 03:56:22;;;;;;;14.52;11.20;;;19.90;99.90;;;;;;5048459;28;20052;-34
2023/09/09 03:58:48;;;;;;;12.45;11.15;;;19.90;99.90;;;;;;5039183;28;20402;-34
2023/09/09 04:01:14;;;;;;;13.60;12.00;;;19.90;99.90;;;;;;5038829;28;20045;-33
2023/09/09 04:03:40;;;;;;;12.90;11.60;;;19.90;99.90;;;;;;5032837;28;20045;-33
2023/09/09 04:06:10;;;;;;;14.32;11.25;;;19.90;99.90;;;;;;5031382;28;20036;-34
2023/09/09 04:08:37;;;;;;;12.77;11.20;;;19.80;99.90;;;;;;5032182;28;20040;-34
2023/09/09 04:11:04;;;;;;;14.65;11.98;;;19.80;99.90;;;;;;5027930;28;20510;-33
2023/09/09 04:13:30;;;;;;;12.80;11.20;;;19.80;99.90;;;;;;5028747;28;20505;-33
2023/09/09 04:15:56;;;;;;;12.98;11.43;;;19.70;99.90;;;;;;5032576;28;20048;-34
2023/09/09 04:18:23;;;;;;;13.93;10.43;;;19.70;99.90;;;;;;5029085;28;20057;-34
2023/09/09 04:20:49;;;;;;;14.02;11.07;;;19.60;99.90;;;;;;5030370;28;20048;-33
2023/09/09 04:23:15;;;;;;;16.10;12.05;;;19.60;99.90;;;;;;5034442;28;20044;-33
2023/09/09 04:25:42;;;;;;;13.32;11.60;;;19.60;99.90;;;;;;5033750;28;20482;-33
2023/09/09 04:28:10;;;;;;;13.80;10.88;;;19.60;99.90;;;;;;5033400;28;20060;-33
2023/09/09 04:30:38;;;;;;;12.18;10.93;;;19.60;99.90;;;;;;5041032;28;20493;-33
2023/09/09 04:33:08;;;;;;;13.05;11.65;;;19.60;99.90;;;;;;5032204;28;20068;-33
2023/09/09 04:35:34;;;;;;;13.18;11.75;;;19.60;99.90;;;;;;5033772;28;20052;-33
2023/09/09 04:38:00;;;;;;;13.55;11.68;;;19.60;99.90;;;;;;5032557;28;20045;-33
2023/09/09 04:40:26;;;;;;;14.20;12.23;;;19.60;99.90;;;;;;5036037;28;20084;-33
2023/09/09 04:42:52;;;;;;;14.38;11.82;;;19.60;99.90;;;;;;5032471;28;20053;-34
2023/09/09 04:45:18;;;;;;;12.77;11.40;;;19.50;99.90;;;;;;5034572;28;20091;-33
2023/09/09 04:47:44;;;;;;;14.10;12.05;;;19.50;99.90;;;;;;5041964;28;20032;-33
2023/09/09 04:50:09;;;;;;;13.27;11.65;;;19.50;99.90;;;;;;5034779;28;20090;-33
2023/09/09 04:52:35;;;;;;;13.45;12.05;;;19.40;99.90;;;;;;5043119;28;20029;-40
2023/09/09 04:55:00;;;;;;;15.70;12.52;;;19.40;99.90;;;;;;5047438;28;20036;-33
2023/09/09 04:57:26;;;;;;;16.40;12.13;;;19.40;99.90;;;;;;5052212;28;20163;-34
2023/09/09 04:59:52;;;;;;;12.02;10.75;;;19.30;99.90;;;;;;5031516;28;20127;-34
2023/09/09 05:02:17;;;;;;;13.13;11.70;;;19.40;99.90;;;;;;5042314;28;20045;-33
2023/09/09 05:04:43;;;;;;;13.25;10.88;;;19.30;99.90;;;;;;5049274;28;21456;-33
2023/09/09 05:07:10;;;;;;;13.48;11.05;;;19.30;99.90;;;;;;5044600;28;20681;-33
2023/09/09 05:09:35;;;;;;;13.48;11.38;;;19.20;99.90;;;;;;5051193;28;20498;-33
2023/09/09 05:12:01;;;;;;;11.07;9.75;;;19.20;99.90;;;;;;5026475;28;20037;-33
2023/09/09 05:14:27;;;;;;;11.40;10.20;;;19.20;99.90;;;;;;5042410;28;20040;-33
2023/09/09 05:16:52;;;;;;;12.18;9.25;;;19.20;99.90;;;;;;5046932;28;20492;-33
2023/09/09 05:19:18;;;;;;;10.23;9.05;;;19.10;99.90;;;;;;5048947;28;20045;-33
2023/09/09 05:21:44;;;;;;;11.20;9.10;;;19.10;99.90;;;;;;5043780;28;20411;-34
2023/09/09 05:24:09;;;;;;;11.15;8.68;;;19.10;99.90;;;;;;5038963;28;20045;-34
2023/09/09 05:26:35;;;;;;;10.70;8.38;;;19.10;99.90;;;;;;5041626;28;20138;-33
2023/09/09 05:29:02;;;;;;;9.50;8.25;;;19.00;99.90;;;;;;5030778;28;20048;-33
2023/09/09 05:31:28;;;;;;;10.32;7.90;;;19.00;99.90;;;;;;5043947;28;20574;-33
2023/09/09 05:33:53;;;;;;;11.88;9.63;;;19.00;99.90;;;;;;5048113;28;20045;-33
2023/09/09 05:36:19;;;;;;;11.80;9.50;;;19.00;99.90;;;;;;5043025;28;20049;-33
2023/09/09 05:38:44;;;;;;;10.40;9.25;;;19.00;99.90;;;;;;5046153;28;20040;-34
2023/09/09 05:41:10;;;;;;;11.38;10.18;;;19.00;99.90;;;;;;5049050;28;20210;-33
2023/09/09 05:43:36;;;;;;;14.35;12.27;;;19.10;99.90;;;;;;5046872;28;20073;-33
2023/09/09 05:46:01;;;;;;;13.63;11.07;;;19.10;99.90;;;;;;5045321;28;20533;-33
2023/09/09 05:48:27;;;;;;;14.02;12.15;;;19.10;99.90;;;;;;5047004;28;20398;-33
2023/09/09 05:50:55;;;;;;;17.73;13.07;;;19.10;99.90;;;;;;5041635;28;20043;-34
2023/09/09 05:53:21;;;;;;;16.80;13.63;;;19.20;99.90;;;;;;5044904;28;20052;-41
2023/09/09 05:55:47;;;;;;;18.08;13.05;;;19.20;99.90;;;;;;5028989;28;20040;-34
2023/09/09 05:58:13;;;;;;;16.08;12.55;;;19.20;99.90;;;;;;5045781;28;20122;-33
2023/09/09 06:00:38;;;;;;;17.00;13.00;;;19.20;99.90;;;;;;5024624;28;20409;-34
2023/09/09 06:03:04;;;;;;;15.40;12.10;;;19.20;99.90;;;;;;5043678;28;20496;-34
2023/09/09 06:05:30;;;;;;;17.67;13.38;;;19.30;99.90;;;;;;5045239;28;20036;-34
2023/09/09 06:07:57;;;;;;;17.55;13.38;;;19.30;99.90;;;;;;5025837;28;20037;-33
2023/09/09 06:10:22;;;;;;;18.55;14.90;;;19.40;99.90;;;;;;5042690;28;20033;-33
2023/09/09 06:12:49;;;;;;;16.70;12.60;;;19.40;99.90;;;;;;5040247;28;20036;-33
2023/09/09 06:15:15;;;;;;;21.70;15.70;;;19.40;99.90;;;;;;5042021;28;20642;-33
2023/09/09 06:17:41;;;;;;;20.15;16.67;;;19.40;99.90;;;;;;5039922;28;20146;-33
2023/09/09 06:20:07;;;;;;;18.30;15.23;;;19.40;99.90;;;;;;5040967;28;20214;-33
2023/09/09 06:22:34;;;;;;;17.83;15.63;;;19.40;99.90;;;;;;5041315;28;20044;-33
2023/09/09 06:25:01;;;;;;;19.00;14.88;;;19.40;99.90;;;;;;5042097;28;20508;-34
2023/09/09 06:27:27;;;;;;;16.10;14.40;;;19.40;99.90;;;;;;5040705;28;20029;-34
2023/09/09 06:29:52;;;;;;;18.45;15.98;;;19.40;99.90;;;;;;5042356;28;20029;-33
2023/09/09 06:32:18;;;;;;;18.15;15.10;;;19.40;99.90;;;;;;5045400;28;20033;-33
2023/09/09 06:34:44;;;;;;;17.40;15.50;;;19.40;99.90;;;;;;5042262;28;20040;-33
2023/09/09 06:37:10;;;;;;;17.67;15.05;;;19.50;99.90;;;;;;5044147;28;20033;-33
2023/09/09 06:39:36;;;;;;;19.40;15.73;;;19.50;99.90;;;;;;5045287;28;20533;-33
2023/09/09 06:42:02;;;;;;;19.70;15.93;;;19.50;99.90;;;;;;5044611;28;20533;-33
2023/09/09 06:44:27;;;;;;;20.27;16.83;;;19.50;99.90;;;;;;5045649;28;20040;-34
2023/09/09 06:46:53;;;;;;;17.23;14.90;;;19.50;99.90;;;;;;5048820;28;20486;-33
2023/09/09 06:49:19;;;;;;;21.85;17.52;;;19.50;99.90;;;;;;5045221;28;20064;-34
2023/09/09 06:51:45;;;;;;;18.42;16.17;;;19.50;99.90;;;;;;5048664;28;20037;-34
2023/09/09 06:54:11;;;;;;;23.33;18.48;;;19.60;99.90;;;;;;5044054;28;20257;-34
2023/09/09 06:56:36;;;;;;;22.60;17.00;;;19.60;99.90;;;;;;5041020;28;20045;-33
2023/09/09 06:59:03;;;;;;;29.98;18.17;;;19.70;99.90;;;;;;5030839;28;20080;-33
2023/09/09 07:01:29;;;;;;;22.83;18.33;;;19.70;99.90;;;;;;5032015;28;20048;-34
2023/09/09 07:03:55;;;;;;;21.70;16.75;;;19.80;99.90;;;;;;5036458;28;20078;-33
2023/09/09 07:06:20;;;;;;;26.42;17.10;;;19.90;99.90;;;;;;5037017;28;20042;-33
2023/09/09 07:08:47;;;;;;;35.22;19.73;;;19.90;99.90;;;;;;5043391;28;20045;-33
2023/09/09 07:11:13;;;;;;;67.07;22.48;;;19.90;99.90;;;;;;5044892;28;20513;-34
2023/09/09 07:13:39;;;;;;;37.35;21.80;;;20.00;99.90;;;;;;5045138;28;20028;-34
2023/09/09 07:16:04;;;;;;;55.13;20.85;;;20.00;99.90;;;;;;5045448;28;20041;-34
2023/09/09 07:18:30;;;;;;;48.40;20.85;;;20.10;99.90;;;;;;5038397;28;20047;-33
2023/09/09 07:20:59;;;;;;;17.35;7.68;;;20.10;99.90;;;;;;5035289;28;20048;-33
2023/09/09 07:23:25;;;;;;;12.18;4.93;;;20.20;99.90;;;;;;5032559;28;20045;-33
2023/09/09 07:25:51;;;;;;;17.63;8.82;;;20.60;99.90;;;;;;5027988;28;20053;-33
2023/09/09 07:28:16;;;;;;;44.55;18.15;;;21.00;99.90;;;;;;5032253;28;20055;-33
2023/09/09 07:30:44;;;;;;;13.15;9.20;;;21.40;99.90;;;;;;5028742;28;20044;-33
2023/09/09 07:33:09;;;;;;;28.40;14.55;;;21.60;99.90;;;;;;5031937;28;20041;-33
2023/09/09 07:35:35;;;;;;;13.90;9.40;;;21.80;99.90;;;;;;5037036;28;20041;-33
2023/09/09 07:38:04;;;;;;;14.98;11.50;;;22.00;99.90;;;;;;5035440;28;20033;-33
2023/09/09 07:40:29;;;;;;;26.40;13.00;;;22.20;99.90;;;;;;5032155;28;20141;-33
2023/09/09 07:42:55;;;;;;;15.75;11.65;;;22.30;99.90;;;;;;5031753;28;20040;-33
2023/09/09 07:45:21;;;;;;;14.93;11.30;;;22.50;99.90;;;;;;5039802;28;20036;-33
2023/09/09 07:47:47;;;;;;;12.05;10.13;;;22.60;99.90;;;;;;5033154;28;20655;-33
2023/09/09 07:50:13;;;;;;;21.17;12.57;;;22.80;99.90;;;;;;5029404;28;20051;-33
2023/09/09 07:52:38;;;;;;;14.68;11.07;;;23.00;99.90;;;;;;5031679;28;20805;-33
2023/09/09 07:55:04;;;;;;;16.98;12.77;;;23.10;99.90;;;;;;5030800;28;20045;-33
2023/09/09 07:57:30;;;;;;;28.10;14.40;;;23.10;99.90;;;;;;5034436;28;20052;-33
2023/09/09 07:59:56;;;;;;;19.65;12.77;;;23.20;99.90;;;;;;5032452;28;20155;-33
2023/09/09 08:02:22;;;;;;;16.30;13.40;;;23.20;99.90;;;;;;5029503;28;20392;-33
2023/09/09 08:04:48;;;;;;;15.48;11.40;;;23.30;99.90;;;;;;5031545;28;20037;-33
2023/09/09 08:07:13;;;;;;;13.18;10.48;;;23.30;99.90;;;;;;5027681;28;20088;-33
2023/09/09 08:09:39;;;;;;;16.73;13.70;;;23.40;99.90;;;;;;5033286;28;20043;-33
2023/09/09 08:12:05;;;;;;;13.40;11.30;;;23.50;99.90;;;;;;5026547;28;21192;-33
2023/09/09 08:14:30;;;;;;;14.07;11.60;;;23.60;99.90;;;;;;5030201;28;20044;-33
2023/09/09 08:16:56;;;;;;;18.23;15.18;;;23.70;99.90;;;;;;5015835;28;20080;-33
2023/09/09 08:19:22;;;;;;;19.13;14.80;;;23.60;99.90;;;;;;5035152;28;20044;-33
2023/09/09 08:21:48;;;;;;;17.20;14.00;;;23.40;99.90;;;;;;5029307;28;20044;-33
2023/09/09 08:24:14;;;;;;;15.27;12.75;;;23.50;99.90;;;;;;5032386;28;20635;-33
2023/09/09 08:26:40;;;;;;;14.85;11.73;;;23.60;99.90;;;;;;5035313;28;20186;-33
2023/09/09 08:29:05;;;;;;;20.13;16.15;;;23.50;99.90;;;;;;5043965;28;20061;-33
2023/09/09 08:31:31;;;;;;;14.23;12.57;;;23.50;99.90;;;;;;5046538;28;20037;-33
2023/09/09 08:33:57;;;;;;;19.45;16.60;;;23.60;99.90;;;;;;5041263;28;20040;-33
2023/09/09 08:36:22;;;;;;;20.10;17.15;;;23.60;99.90;;;;;;5046140;28;20498;-33
2023/09/09 08:38:48;;;;;;;19.25;15.25;;;23.60;99.90;;;;;;5043778;28;20487;-33
2023/09/09 08:41:23;;;;;;;17.60;14.30;;;23.60;99.90;;;;;;5048430;28;20475;-33
2023/09/09 08:44:11;;;;;;;15.95;13.27;;;23.50;99.90;;;;;;5046286;28;20460;-33
2023/09/09 08:46:37;;;;;;;17.98;15.70;;;23.50;99.90;;;;;;5049655;28;20049;-33
2023/09/09 08:49:05;;;;;;;18.98;15.10;;;23.60;99.90;;;;;;5049195;28;20040;-33
2023/09/09 08:51:49;;;;;;;16.75;14.07;;;23.60;99.90;;;;;;5043767;28;20065;-33
2023/09/09 08:54:15;;;;;;;23.13;19.50;;;23.70;99.90;;;;;;5043148;28;20041;-33
2023/09/09 08:56:41;;;;;;;19.63;15.55;;;23.80;99.90;;;;;;5044236;28;21299;-33
2023/09/09 08:59:08;;;;;;;15.82;14.02;;;23.80;99.90;;;;;;5043508;28;20068;-33
2023/09/09 09:01:35;;;;;;;19.13;15.75;;;23.90;99.90;;;;;;5037400;28;20041;-33
2023/09/09 09:04:01;;;;;;;15.45;13.30;;;23.90;99.90;;;;;;5044195;28;20175;-34
2023/09/09 09:06:28;;;;;;;26.20;21.65;;;24.00;99.90;;;;;;5026796;28;20139;-33
2023/09/09 09:08:53;;;;;;;21.67;17.13;;;24.10;99.90;;;;;;5039955;28;20044;-33
2023/09/09 09:11:21;;;;;;;24.95;20.17;;;24.20;99.90;;;;;;5049681;28;20060;-33
2023/09/09 09:13:47;;;;;;;18.33;14.80;;;24.30;99.90;;;;;;5041851;28;20178;-33
2023/09/09 09:16:13;;;;;;;23.92;19.65;;;24.30;99.90;;;;;;5040617;28;20107;-33
2023/09/09 09:18:39;;;;;;;16.48;14.27;;;24.50;99.90;;;;;;5046456;28;20050;-33
2023/09/09 09:21:09;;;;;;;19.40;16.58;;;24.50;99.90;;;;;;5047891;28;20064;-33
2023/09/09 09:23:42;;;;;;;14.55;12.90;;;24.60;99.90;;;;;;5042729;28;20041;-33
2023/09/09 09:26:31;;;;;;;17.95;14.88;;;24.70;99.90;;;;;;5043380;28;20132;-33
2023/09/09 09:29:01;;;;;;;19.52;16.20;;;24.80;99.90;;;;;;5043077;28;20121;-33
2023/09/09 09:31:27;;;;;;;18.45;15.10;;;24.90;99.90;;;;;;5049515;28;20120;-33
2023/09/09 09:33:53;;;;;;;22.67;19.35;;;25.00;99.90;;;;;;5049497;28;20036;-33
2023/09/09 09:36:20;;;;;;;25.00;20.27;;;25.10;99.90;;;;;;5046806;28;20056;-33
2023/09/09 09:38:47;;;;;;;28.00;20.95;;;25.10;99.90;;;;;;5048270;28;20445;-33
2023/09/09 09:41:14;;;;;;;22.27;18.25;;;25.10;99.90;;;;;;5046813;28;20037;-34
2023/09/09 09:43:39;;;;;;;25.90;21.20;;;25.20;99.90;;;;;;5028018;28;20616;-33
2023/09/09 09:46:22;;;;;;;32.88;25.13;;;25.30;99.90;;;;;;5043972;28;20041;-33
2023/09/09 09:48:48;;;;;;;28.83;21.60;;;25.40;99.90;;;;;;5046455;28;20037;-33
2023/09/09 09:51:14;;;;;;;34.75;25.98;;;25.50;99.90;;;;;;5041352;28;20398;-33
2023/09/09 09:53:58;;;;;;;32.47;25.85;;;25.60;99.90;;;;;;5042523;28;20483;-34
2023/09/09 09:56:24;;;;;;;27.55;22.65;;;25.70;99.90;;;;;;5035700;28;20049;-33
2023/09/09 09:58:50;;;;;;;37.22;26.73;;;25.80;99.90;;;;;;5039816;28;21042;-33
2023/09/09 10:01:16;;;;;;;32.83;25.58;;;25.90;99.90;;;;;;5042628;28;20073;-33
2023/09/09 10:03:57;;;;;;;37.97;28.55;;;26.00;99.90;;;;;;5039603;28;20128;-33
2023/09/09 10:06:28;;;;;;;40.67;31.58;;;26.10;99.90;;;;;;5039570;28;20052;-33
2023/09/09 10:09:32;;;;;;;37.70;27.33;;;26.20;99.90;;;;;;5041178;28;20045;-33
2023/09/09 10:12:01;;;;;;;35.10;25.33;;;26.30;99.90;;;;;;5006949;28;21319;-33
2023/09/09 10:14:28;;;;;;;33.47;25.20;;;26.30;99.90;;;;;;5041071;28;20048;-33
2023/09/09 10:16:54;;;;;;;43.90;29.92;;;26.40;99.90;;;;;;5041116;28;20037;-35
2023/09/09 10:19:20;;;;;;;26.83;20.52;;;26.40;99.90;;;;;;5045360;28;20057;-33
2023/09/09 10:21:51;;;;;;;32.65;23.73;;;26.40;99.90;;;;;;5048515;28;20051;-33
2023/09/09 10:24:18;;;;;;;37.33;26.23;;;26.50;99.90;;;;;;5048295;28;20490;-33
2023/09/09 10:26:46;;;;;;;43.15;28.58;;;26.50;99.90;;;;;;5044193;28;20036;-33
2023/09/09 10:29:13;;;;;;;34.42;24.05;;;26.60;99.90;;;;;;5041536;28;20204;-33
2023/09/09 10:31:41;;;;;;;33.38;23.95;;;26.60;99.90;;;;;;5041935;28;20037;-33
2023/09/09 10:34:09;;;;;;;28.77;20.60;;;26.70;99.90;;;;;;5046473;28;20322;-33
2023/09/09 10:36:36;;;;;;;30.08;21.58;;;26.70;99.90;;;;;;5040938;28;20102;-33
2023/09/09 10:39:02;;;;;;;33.20;23.80;;;26.80;99.90;;;;;;5046141;28;20078;-33
2023/09/09 10:41:30;;;;;;;26.48;19.13;;;26.90;99.90;;;;;;5046541;28;20090;-33
2023/09/09 10:43:56;;;;;;;22.58;18.38;;;27.00;99.90;;;;;;5047624;28;20041;-33
2023/09/09 10:46:33;;;;;;;19.75;13.52;;;27.00;99.90;;;;;;5042669;28;20036;-33
2023/09/09 10:49:02;;;;;;;10.63;8.52;;;27.00;99.90;;;;;;5043893;28;20057;-33
2023/09/09 10:51:29;;;;;;;9.38;6.63;;;27.10;99.90;;;;;;5014406;28;20429;-33
2023/09/09 10:54:07;;;;;;;10.63;7.13;;;27.20;99.90;;;;;;5044110;28;20406;-33
2023/09/09 10:56:33;;;;;;;7.05;6.32;;;27.30;99.90;;;;;;5046171;28;20098;-33
2023/09/09 10:59:18;;;;;;;8.57;5.78;;;27.30;99.90;;;;;;5044597;28;20119;-33
2023/09/09 11:01:44;;;;;;;7.20;5.72;;;27.30;99.90;;;;;;5042778;28;20127;-33
2023/09/09 11:04:21;;;;;;;7.05;4.93;;;27.40;99.90;;;;;;5042434;28;20079;-33
2023/09/09 11:07:07;;;;;;;7.05;4.57;;;27.40;99.90;;;;;;5040026;28;20069;-33
2023/09/09 11:09:33;;;;;;;5.50;4.93;;;27.50;99.90;;;;;;5038494;28;20553;-33
2023/09/09 11:11:59;;;;;;;7.05;5.63;;;27.60;99.90;;;;;;5035397;28;20479;-33
2023/09/09 11:14:32;;;;;;;8.40;5.50;;;27.70;99.90;;;;;;5040039;28;20048;-33
2023/09/09 11:16:57;;;;;;;7.68;5.57;;;27.70;99.90;;;;;;5035809;28;20122;-34
2023/09/09 11:19:24;;;;;;;7.75;6.40;;;27.70;99.90;;;;;;5039449;28;20139;-33
2023/09/09 11:21:51;;;;;;;6.57;5.22;;;27.80;99.90;;;;;;5038977;28;20057;-33
2023/09/09 11:24:18;;;;;;;8.93;6.45;;;27.90;99.90;;;;;;5041924;28;20052;-33
2023/09/09 11:26:48;;;;;;;7.22;5.82;;;28.00;99.90;;;;;;5039159;28;20033;-33
2023/09/09 11:29:16;;;;;;;7.50;6.05;;;28.00;99.90;;;;;;5044246;28;20111;-33
2023/09/09 11:31:42;;;;;;;10.00;6.85;;;28.10;99.90;;;;;;5039306;28;20045;-33
2023/09/09 11:34:07;;;;;;;7.97;6.68;;;28.10;99.90;;;;;;5045079;28;20118;-33
2023/09/09 11:36:33;;;;;;;10.43;6.45;;;28.20;99.90;;;;;;5037788;28;20049;-33
2023/09/09 11:39:00;;;;;;;9.90;7.28;;;28.20;99.90;;;;;;5043753;28;20045;-34
2023/09/09 11:41:31;;;;;;;8.60;6.70;;;28.20;99.90;;;;;;5038669;28;20131;-33
2023/09/09 11:44:00;;;;;;;9.73;6.95;;;28.30;99.90;;;;;;5023971;28;20049;-34
2023/09/09 11:46:28;;;;;;;8.18;6.63;;;28.30;99.90;;;;;;5040963;28;20055;-33
2023/09/09 11:48:53;;;;;;;7.80;6.75;;;28.40;99.90;;;;;;5041710;28;20044;-33
2023/09/09 11:51:20;;;;;;;8.38;6.30;;;28.40;99.90;;;;;;5030873;28;20032;-33
2023/09/09 11:53:47;;;;;;;9.38;7.60;;;28.40;99.90;;;;;;5035701;28;20057;-33
2023/09/09 11:56:14;;;;;;;7.55;6.63;;;28.40;99.90;;;;;;5041236;28;20071;-33
2023/09/09 11:58:41;;;;;;;8.77;6.85;;;28.40;99.90;;;;;;5038846;28;20036;-34
2023/09/09 12:01:07;;;;;;;8.73;6.90;;;28.50;99.90;;;;;;5040918;28;20095;-33
2023/09/09 12:03:33;;;;;;;10.13;6.15;;;28.60;99.90;;;;;;5037302;28;20498;-33
2023/09/09 12:06:01;;;;;;;10.85;6.45;;;28.60;99.90;;;;;;5045933;28;20131;-32
2023/09/09 12:08:27;;;;;;;8.45;6.30;;;28.70;99.90;;;;;;5034672;28;21408;-32
2023/09/09 12:10:56;;;;;;;6.80;5.65;;;28.70;99.90;;;;;;5036520;28;20037;-32
2023/09/09 12:13:22;;;;;;;8.75;6.90;;;28.80;99.90;;;;;;5042396;28;20041;-33
2023/09/09 12:15:48;;;;;;;8.40;5.10;;;28.90;99.90;;;;;;5044572;28;20043;-34
2023/09/09 12:18:14;;;;;;;7.10;5.47;;;28.90;99.90;;;;;;5041160;28;20096;-34
2023/09/09 12:21:05;;;;;;;8.68;5.35;;;29.00;99.90;;;;;;5040979;28;20060;-34
2023/09/09 12:23:33;;;;;;;6.05;4.40;;;29.10;99.90;;;;;;5046034;28;20483;-33
2023/09/09 12:26:11;;;;;;;7.72;5.78;;;29.10;99.90;;;;;;5041196;28;20088;-33
2023/09/09 12:28:38;;;;;;;8.35;5.50;;;29.20;99.90;;;;;;5043040;28;20033;-33
2023/09/09 12:31:04;;;;;;;6.38;4.90;;;29.30;99.90;;;;;;5039429;28;20095;-33